Time;durP1;ratioP1;P1;durP2;ratioP2;P2;SDS_P1;SDS_P2;PMS_P1;PMS_P2;Temp;Humidity;BMP_temperature;BMP_pressure;BME280_temperature;BME280_humidity;BME280_pressure;Samples;Min_cycle;Max_cycle;Signal;HPM_P1;HPM_P2
2023/05/16 00:01:29;;;;;;;6.53;4.77;;;10.60;99.90;;;;;;5073630;28;20242;-79
2023/05/16 00:03:57;;;;;;;6.63;5.00;;;10.60;99.90;;;;;;5073414;28;20307;-79
2023/05/16 00:06:25;;;;;;;9.00;5.13;;;10.60;99.90;;;;;;5073058;28;20249;-77
2023/05/16 00:08:54;;;;;;;6.20;4.90;;;10.60;99.90;;;;;;5073474;28;20208;-77
2023/05/16 00:11:22;;;;;;;7.63;5.10;;;10.60;99.90;;;;;;5073060;28;20238;-80
2023/05/16 00:13:51;;;;;;;5.70;5.10;;;10.50;99.90;;;;;;5072844;28;20218;-78
2023/05/16 00:16:20;;;;;;;5.57;5.07;;;10.50;99.90;;;;;;5073360;28;20215;-77
2023/05/16 00:18:49;;;;;;;5.77;5.20;;;10.50;99.90;;;;;;5073503;28;20318;-78
2023/05/16 00:21:17;;;;;;;5.77;5.10;;;10.50;99.90;;;;;;5089227;28;20708;-78
2023/05/16 00:23:45;;;;;;;6.67;5.40;;;10.50;99.90;;;;;;5093002;28;20221;-77
2023/05/16 00:26:14;;;;;;;7.10;5.07;;;10.50;99.90;;;;;;5093896;28;20302;-77
2023/05/16 00:28:43;;;;;;;6.57;5.20;;;10.50;99.90;;;;;;5093147;28;20195;-78
2023/05/16 00:31:11;;;;;;;5.53;5.03;;;10.40;99.90;;;;;;5073211;28;20653;-78
2023/05/16 00:33:39;;;;;;;5.57;5.00;;;10.40;99.90;;;;;;5072188;28;20207;-77
2023/05/16 00:36:07;;;;;;;5.90;5.30;;;10.40;99.90;;;;;;5073048;28;20210;-77
2023/05/16 00:38:36;;;;;;;6.20;5.60;;;10.40;99.90;;;;;;5072918;28;20234;-77
2023/05/16 00:41:04;;;;;;;6.77;5.47;;;10.40;99.90;;;;;;5073123;28;20211;-78
2023/05/16 00:43:33;;;;;;;7.17;6.43;;;10.40;99.90;;;;;;5072161;28;20566;-78
2023/05/16 00:46:02;;;;;;;7.00;5.50;;;10.40;99.90;;;;;;5084175;28;20211;-78
2023/05/16 00:48:30;;;;;;;7.83;6.00;;;10.40;99.90;;;;;;5083019;28;20207;-77
2023/05/16 00:50:58;;;;;;;7.07;5.70;;;10.30;99.90;;;;;;5095388;28;20293;-80
2023/05/16 00:53:27;;;;;;;6.23;5.63;;;10.30;99.90;;;;;;5093260;28;20302;-78
2023/05/16 00:55:56;;;;;;;6.60;6.00;;;10.30;99.90;;;;;;5092549;28;20209;-76
2023/05/16 00:58:25;;;;;;;9.13;6.03;;;10.30;99.90;;;;;;5074833;28;20280;-78
2023/05/16 01:00:54;;;;;;;6.70;6.03;;;10.20;99.90;;;;;;5073167;28;20266;-78
2023/05/16 01:03:22;;;;;;;7.37;6.40;;;10.20;99.90;;;;;;5072914;28;20207;-79
2023/05/16 01:05:52;;;;;;;6.40;5.67;;;10.20;99.90;;;;;;5072569;28;20215;-79
2023/05/16 01:08:20;;;;;;;6.87;5.80;;;10.20;99.90;;;;;;5072794;28;20207;-80
2023/05/16 01:10:56;;;;;;;7.03;5.47;;;10.20;99.90;;;;;;5072788;28;20223;-78
2023/05/16 01:13:31;;;;;;;6.40;5.80;;;10.20;99.90;;;;;;5071916;28;20297;-79
2023/05/16 01:16:09;;;;;;;8.60;6.53;;;10.20;99.90;;;;;;5072110;28;20207;-75
2023/05/16 01:18:43;;;;;;;7.27;6.33;;;10.20;99.90;;;;;;5072177;28;20290;-80
2023/05/16 01:21:16;;;;;;;6.50;5.80;;;10.20;99.90;;;;;;5072457;28;20226;-77
2023/05/16 01:23:52;;;;;;;6.77;6.07;;;10.20;99.90;;;;;;5071663;28;20220;-76
2023/05/16 01:26:23;;;;;;;7.07;6.37;;;10.20;99.90;;;;;;5072393;28;20310;-79
2023/05/16 01:28:52;;;;;;;7.13;6.43;;;10.20;99.90;;;;;;5072327;28;20203;-77
2023/05/16 01:31:22;;;;;;;7.80;6.50;;;10.10;99.90;;;;;;5072333;28;20302;-76
2023/05/16 01:33:50;;;;;;;7.20;6.47;;;10.10;99.90;;;;;;5071640;28;20299;-77
2023/05/16 01:36:25;;;;;;;8.10;6.73;;;10.10;99.90;;;;;;5071989;28;20298;-78
2023/05/16 01:39:07;;;;;;;7.90;6.30;;;10.00;99.90;;;;;;5072078;28;20288;-75
2023/05/16 01:41:43;;;;;;;7.13;6.43;;;10.00;99.90;;;;;;5071834;28;20670;-76
2023/05/16 01:44:18;;;;;;;7.37;6.67;;;10.00;99.90;;;;;;5080492;28;20221;-76
2023/05/16 01:46:48;;;;;;;7.50;6.20;;;10.00;99.90;;;;;;5076147;28;20195;-78
2023/05/16 01:49:22;;;;;;;7.90;6.63;;;10.00;99.90;;;;;;5092818;28;20467;-78
2023/05/16 01:51:54;;;;;;;7.73;7.03;;;9.90;99.90;;;;;;5090091;28;20203;-78
2023/05/16 01:54:24;;;;;;;8.83;7.10;;;10.00;99.90;;;;;;5079053;28;20221;-78
2023/05/16 01:56:56;;;;;;;7.80;7.10;;;9.90;99.90;;;;;;5094751;28;20226;-79
2023/05/16 01:59:25;;;;;;;7.60;6.70;;;9.90;99.90;;;;;;5090608;28;20602;-79
2023/05/16 02:01:54;;;;;;;9.10;7.57;;;9.90;99.90;;;;;;5088912;28;20658;-78
2023/05/16 02:04:23;;;;;;;9.30;8.03;;;9.90;99.90;;;;;;5070404;28;20211;-78
2023/05/16 02:06:51;;;;;;;8.40;7.50;;;9.90;99.90;;;;;;5071829;28;20713;-80
2023/05/16 02:09:19;;;;;;;8.33;7.47;;;9.90;99.90;;;;;;5074383;28;20200;-76
2023/05/16 02:11:47;;;;;;;8.07;7.27;;;9.90;99.90;;;;;;5090693;28;20306;-75
2023/05/16 02:14:17;;;;;;;10.13;7.20;;;9.90;99.90;;;;;;5096778;28;20207;-78
2023/05/16 02:16:45;;;;;;;9.10;8.20;;;9.90;99.90;;;;;;5097434;28;20207;-76
2023/05/16 02:19:13;;;;;;;9.03;7.33;;;9.90;99.90;;;;;;5084486;28;20231;-78
2023/05/16 02:21:41;;;;;;;8.33;7.53;;;9.90;99.90;;;;;;5075550;28;20215;-79
2023/05/16 02:24:09;;;;;;;9.67;7.80;;;9.90;99.90;;;;;;5075579;28;20204;-77
2023/05/16 02:26:37;;;;;;;8.93;8.03;;;9.90;99.90;;;;;;5075943;28;20211;-80
2023/05/16 02:29:05;;;;;;;9.07;7.83;;;9.90;99.90;;;;;;5096982;28;20210;-76
2023/05/16 02:31:35;;;;;;;8.37;7.57;;;9.90;99.90;;;;;;5095683;28;20563;-78
2023/05/16 02:34:03;;;;;;;11.63;8.07;;;9.90;99.90;;;;;;5095576;28;20211;-77
2023/05/16 02:36:33;;;;;;;8.87;8.07;;;9.90;99.90;;;;;;5091833;28;20230;-78
2023/05/16 02:39:02;;;;;;;9.57;8.10;;;9.90;99.90;;;;;;5075459;28;20250;-78
2023/05/16 02:41:31;;;;;;;9.00;8.10;;;9.90;99.90;;;;;;5075184;28;20703;-76
2023/05/16 02:43:59;;;;;;;10.07;7.73;;;9.90;99.90;;;;;;5093523;28;20221;-78
2023/05/16 02:46:30;;;;;;;10.23;7.90;;;9.80;99.90;;;;;;5095692;28;20237;-77
2023/05/16 02:49:00;;;;;;;9.80;8.30;;;9.90;99.90;;;;;;5095488;28;20207;-80
2023/05/16 02:51:29;;;;;;;9.07;8.17;;;9.90;99.90;;;;;;5096059;28;20293;-78
2023/05/16 02:53:58;;;;;;;9.43;8.53;;;9.90;99.90;;;;;;5108621;28;20217;-74
2023/05/16 02:56:26;;;;;;;9.20;8.23;;;9.90;99.90;;;;;;5084846;28;20202;-78
2023/05/16 02:58:55;;;;;;;10.53;8.67;;;9.80;99.90;;;;;;5097686;28;20267;-78
2023/05/16 03:01:23;;;;;;;10.47;9.40;;;9.80;99.90;;;;;;5082737;28;20655;-75
2023/05/16 03:03:51;;;;;;;9.90;8.90;;;9.80;99.90;;;;;;5074695;28;20215;-79
2023/05/16 03:06:21;;;;;;;10.33;9.23;;;9.70;99.90;;;;;;5074618;28;20207;-78
2023/05/16 03:08:49;;;;;;;10.53;9.07;;;9.80;99.90;;;;;;5074917;28;20211;-79
2023/05/16 03:11:19;;;;;;;10.57;9.50;;;9.70;99.90;;;;;;5074590;28;20211;-79
2023/05/16 03:13:47;;;;;;;10.27;9.17;;;9.70;99.90;;;;;;5074748;28;20569;-79
2023/05/16 03:16:16;;;;;;;9.67;8.67;;;9.70;99.90;;;;;;5075262;28;20633;-79
2023/05/16 03:18:44;;;;;;;10.23;9.23;;;9.70;99.90;;;;;;5074309;28;20246;-79
2023/05/16 03:21:12;;;;;;;10.73;9.63;;;9.70;99.90;;;;;;5074615;28;20232;-80
2023/05/16 03:23:42;;;;;;;10.97;9.77;;;9.70;99.90;;;;;;5074475;28;20210;-77
2023/05/16 03:26:10;;;;;;;12.97;10.27;;;9.60;99.90;;;;;;5074871;28;20221;-80
2023/05/16 03:28:38;;;;;;;11.37;10.17;;;9.60;99.90;;;;;;5074731;28;20228;-77
2023/05/16 03:31:06;;;;;;;11.33;10.13;;;9.60;99.90;;;;;;5074448;28;20203;-77
2023/05/16 03:33:34;;;;;;;12.17;9.90;;;9.60;99.90;;;;;;5074164;28;20280;-78
2023/05/16 03:36:02;;;;;;;11.20;10.10;;;9.60;99.90;;;;;;5092836;28;20234;-79
2023/05/16 03:38:31;;;;;;;11.13;9.90;;;9.70;99.90;;;;;;5094665;28;20286;-78
2023/05/16 03:41:00;;;;;;;12.03;10.37;;;9.60;99.90;;;;;;5094473;28;20223;-78
2023/05/16 03:43:28;;;;;;;15.13;10.40;;;9.60;99.90;;;;;;5077284;28;20234;-78
2023/05/16 03:45:56;;;;;;;11.83;10.47;;;9.60;99.90;;;;;;5074117;28;20208;-79
2023/05/16 03:48:25;;;;;;;11.63;10.53;;;9.50;99.90;;;;;;5073815;28;20208;-80
2023/05/16 03:50:53;;;;;;;11.40;10.30;;;9.60;99.90;;;;;;5073717;28;20215;-78
2023/05/16 03:53:21;;;;;;;12.20;10.00;;;9.60;99.90;;;;;;5073770;28;20579;-78
2023/05/16 03:55:49;;;;;;;11.20;10.07;;;9.60;99.90;;;;;;5073641;28;20208;-78
2023/05/16 03:58:18;;;;;;;12.17;10.83;;;9.60;99.90;;;;;;5073868;28;20654;-78
2023/05/16 04:00:46;;;;;;;11.37;10.13;;;9.50;99.90;;;;;;5073356;28;20719;-78
2023/05/16 04:03:15;;;;;;;11.63;10.43;;;9.50;99.90;;;;;;5073349;28;20237;-78
2023/05/16 04:05:43;;;;;;;11.43;10.23;;;9.60;99.90;;;;;;5073100;28;20218;-77
2023/05/16 04:08:12;;;;;;;12.00;10.80;;;9.60;99.90;;;;;;5073773;28;20211;-76
2023/05/16 04:10:40;;;;;;;13.13;10.70;;;9.60;99.90;;;;;;5073284;28;20238;-76
2023/05/16 04:13:08;;;;;;;11.60;10.37;;;9.60;99.90;;;;;;5073300;28;20279;-77
2023/05/16 04:15:38;;;;;;;12.17;10.80;;;9.50;99.90;;;;;;5080925;28;20294;-76
2023/05/16 04:18:06;;;;;;;12.77;11.47;;;9.60;99.90;;;;;;5076127;28;20215;-79
2023/05/16 04:20:34;;;;;;;14.80;10.63;;;9.60;99.90;;;;;;5073058;28;20258;-79
2023/05/16 04:23:02;;;;;;;11.73;10.53;;;9.70;99.90;;;;;;5073099;28;20207;-79
2023/05/16 04:25:31;;;;;;;12.37;11.07;;;9.70;99.90;;;;;;5073314;28;20261;-79
2023/05/16 04:27:59;;;;;;;11.57;10.47;;;9.70;99.90;;;;;;5073184;28;20219;-79
2023/05/16 04:30:27;;;;;;;12.17;10.90;;;9.70;99.90;;;;;;5072658;28;20208;-77
2023/05/16 04:32:58;;;;;;;10.80;9.73;;;9.80;99.90;;;;;;5074395;28;20211;-80
2023/05/16 04:35:28;;;;;;;12.30;10.00;;;9.80;99.90;;;;;;5073961;28;20192;-79
2023/05/16 04:37:56;;;;;;;11.80;10.17;;;9.80;99.90;;;;;;5079100;28;20218;-76
2023/05/16 04:40:25;;;;;;;11.73;10.53;;;9.90;99.90;;;;;;5084952;28;20657;-76
2023/05/16 04:42:54;;;;;;;13.23;9.97;;;9.90;99.90;;;;;;5096179;28;20584;-77
2023/05/16 04:45:22;;;;;;;12.47;9.70;;;9.90;99.90;;;;;;5093986;28;20231;-78
2023/05/16 04:47:50;;;;;;;10.73;9.70;;;10.00;99.90;;;;;;5089620;28;20199;-78
2023/05/16 04:50:19;;;;;;;11.40;10.20;;;10.00;99.90;;;;;;5091607;28;20305;-78
2023/05/16 04:52:47;;;;;;;11.03;9.90;;;10.10;99.90;;;;;;5092372;28;20234;-80
2023/05/16 04:55:16;;;;;;;10.90;9.70;;;10.10;99.90;;;;;;5092363;28;20248;-77
2023/05/16 04:57:44;;;;;;;11.20;10.03;;;10.20;99.90;;;;;;5089119;28;20203;-77
2023/05/16 05:00:13;;;;;;;11.20;10.10;;;10.20;99.90;;;;;;5091119;28;20254;-79
2023/05/16 05:02:42;;;;;;;11.77;10.53;;;10.30;99.90;;;;;;5087670;28;20544;-78
2023/05/16 05:05:11;;;;;;;11.60;10.37;;;10.30;99.90;;;;;;5072170;28;20272;-78
2023/05/16 05:07:42;;;;;;;11.37;10.07;;;10.30;99.90;;;;;;5072005;28;20238;-78
2023/05/16 05:10:11;;;;;;;11.97;10.77;;;10.30;99.90;;;;;;5072712;28;20196;-80
2023/05/16 05:12:39;;;;;;;11.37;10.27;;;10.30;99.90;;;;;;5071835;28;20226;-78
2023/05/16 05:15:07;;;;;;;10.90;9.90;;;10.20;99.90;;;;;;5072652;28;20293;-78
2023/05/16 05:17:36;;;;;;;12.80;11.43;;;10.20;99.90;;;;;;5071843;28;20219;-78
2023/05/16 05:20:07;;;;;;;14.07;11.63;;;10.20;99.90;;;;;;5072516;28;20301;-78
2023/05/16 05:22:35;;;;;;;14.53;11.87;;;10.10;99.90;;;;;;5072062;28;20310;-78
2023/05/16 05:25:05;;;;;;;13.13;11.40;;;10.10;99.90;;;;;;5072425;28;20211;-79
2023/05/16 05:27:34;;;;;;;13.27;11.03;;;10.10;99.90;;;;;;5089566;28;20215;-79
2023/05/16 05:30:02;;;;;;;12.50;11.30;;;10.10;99.90;;;;;;5092438;28;20687;-78
2023/05/16 05:32:30;;;;;;;13.10;11.83;;;10.10;99.90;;;;;;5092683;28;20210;-77
2023/05/16 05:34:59;;;;;;;14.67;13.17;;;10.00;99.90;;;;;;5085305;28;20204;-76
2023/05/16 05:37:27;;;;;;;13.60;12.30;;;10.00;99.90;;;;;;5072414;28;20214;-79
2023/05/16 05:39:55;;;;;;;13.53;12.03;;;10.00;99.90;;;;;;5092418;28;20210;-76
2023/05/16 05:42:24;;;;;;;14.73;13.17;;;10.00;99.90;;;;;;5096182;28;20234;-79
2023/05/16 05:44:53;;;;;;;14.53;13.03;;;9.90;99.90;;;;;;5087344;28;20584;-75
2023/05/16 05:47:21;;;;;;;14.70;13.20;;;9.90;99.90;;;;;;5076370;28;20211;-74
2023/05/16 05:49:50;;;;;;;15.70;13.63;;;10.00;99.90;;;;;;5076219;28;20207;-75
2023/05/16 05:52:19;;;;;;;15.53;13.90;;;9.90;99.90;;;;;;5075736;28;20292;-73
2023/05/16 05:54:48;;;;;;;15.57;14.07;;;9.90;99.90;;;;;;5096072;28;20684;-74
2023/05/16 05:57:16;;;;;;;17.03;15.30;;;9.90;99.90;;;;;;5096754;28;20214;-74
2023/05/16 05:59:45;;;;;;;16.27;14.57;;;9.90;99.90;;;;;;5096802;28;20750;-73
2023/05/16 06:02:14;;;;;;;19.50;15.70;;;9.90;99.90;;;;;;5081606;28;20585;-74
2023/05/16 06:04:44;;;;;;;17.00;15.20;;;9.90;99.90;;;;;;5076467;28;20632;-75
2023/05/16 06:07:13;;;;;;;16.93;15.13;;;9.90;99.90;;;;;;5075905;28;20578;-77
2023/05/16 06:09:42;;;;;;;17.87;15.97;;;9.90;99.90;;;;;;5075715;28;20215;-74
2023/05/16 06:12:10;;;;;;;19.10;16.50;;;9.90;99.90;;;;;;5075418;28;20214;-75
2023/05/16 06:14:38;;;;;;;17.27;15.47;;;9.90;99.90;;;;;;5091070;28;20207;-76
2023/05/16 06:17:08;;;;;;;18.00;14.87;;;9.90;99.90;;;;;;5092119;28;20306;-73
2023/05/16 06:19:36;;;;;;;17.53;15.73;;;9.90;99.90;;;;;;5078809;28;20676;-73
2023/05/16 06:22:04;;;;;;;16.43;14.67;;;9.90;99.90;;;;;;5075762;28;20223;-75
2023/05/16 06:24:32;;;;;;;16.23;14.53;;;10.00;99.90;;;;;;5075970;28;20253;-75
2023/05/16 06:27:00;;;;;;;15.17;13.67;;;10.10;99.90;;;;;;5086348;28;20199;-75
2023/05/16 06:29:28;;;;;;;15.50;14.10;;;10.20;99.90;;;;;;5095346;28;20245;-74
2023/05/16 06:31:56;;;;;;;15.03;13.43;;;10.40;99.90;;;;;;5091733;28;20219;-74
2023/05/16 06:34:27;;;;;;;17.73;13.23;;;10.60;99.90;;;;;;5095649;28;20203;-74
2023/05/16 06:36:55;;;;;;;13.57;12.17;;;10.80;99.90;;;;;;5094435;28;20209;-75
2023/05/16 06:39:23;;;;;;;13.23;11.93;;;10.90;99.90;;;;;;5095810;28;20210;-74
2023/05/16 06:41:52;;;;;;;13.03;11.83;;;11.00;99.90;;;;;;5095914;28;20582;-76
2023/05/16 06:44:23;;;;;;;12.93;11.63;;;11.10;99.90;;;;;;5089931;28;20207;-78
2023/05/16 06:46:52;;;;;;;13.00;11.80;;;11.10;99.90;;;;;;5091808;28;20211;-74
2023/05/16 06:49:20;;;;;;;12.47;11.27;;;11.20;99.90;;;;;;5086663;28;20202;-74
2023/05/16 06:51:50;;;;;;;12.87;11.60;;;11.30;99.90;;;;;;5093725;28;20206;-76
2023/05/16 06:54:18;;;;;;;14.63;11.97;;;11.40;99.90;;;;;;5095207;28;20210;-78
2023/05/16 06:56:46;;;;;;;13.03;11.67;;;11.50;99.90;;;;;;5085966;28;20238;-73
2023/05/16 06:59:14;;;;;;;11.77;10.57;;;11.60;99.90;;;;;;5075225;28;20207;-76
2023/05/16 07:01:43;;;;;;;11.80;10.50;;;11.70;99.90;;;;;;5074930;28;20214;-75
2023/05/16 07:04:11;;;;;;;11.37;10.27;;;11.80;99.90;;;;;;5074564;28;20302;-76
2023/05/16 07:06:39;;;;;;;11.63;10.43;;;11.90;99.90;;;;;;5089575;28;20186;-75
2023/05/16 07:09:09;;;;;;;12.47;11.17;;;12.00;99.90;;;;;;5097487;28;20211;-73
2023/05/16 07:11:37;;;;;;;12.67;10.63;;;12.00;99.90;;;;;;5094588;28;20249;-77
2023/05/16 07:14:05;;;;;;;12.37;10.90;;;11.80;99.90;;;;;;5080716;28;20293;-74
2023/05/16 07:16:33;;;;;;;11.93;10.73;;;11.90;99.90;;;;;;5075967;28;20207;-75
2023/05/16 07:19:01;;;;;;;11.43;10.23;;;11.90;99.90;;;;;;5094446;28;20207;-76
2023/05/16 07:21:30;;;;;;;12.17;10.90;;;12.00;99.90;;;;;;5094693;28;20233;-75
2023/05/16 07:23:58;;;;;;;12.47;11.03;;;12.00;99.90;;;;;;5075864;28;20314;-72
2023/05/16 07:26:27;;;;;;;12.87;11.03;;;12.10;99.90;;;;;;5073937;28;20626;-76
2023/05/16 07:28:56;;;;;;;12.30;11.07;;;12.00;99.90;;;;;;5074523;28;20280;-79
2023/05/16 07:31:24;;;;;;;10.73;9.70;;;12.00;99.90;;;;;;5088528;28;20233;-76
2023/05/16 07:33:52;;;;;;;11.27;10.03;;;12.00;99.90;;;;;;5093780;28;20203;-75
2023/05/16 07:36:20;;;;;;;11.10;10.00;;;12.00;99.90;;;;;;5092649;28;20207;-79
2023/05/16 07:38:48;;;;;;;10.57;9.57;;;12.10;99.90;;;;;;5088846;28;20257;-75
2023/05/16 07:41:16;;;;;;;10.57;9.57;;;12.10;99.90;;;;;;5073245;28;20530;-77
2023/05/16 07:43:45;;;;;;;10.80;9.80;;;12.00;99.90;;;;;;5072637;28;20269;-77
2023/05/16 07:46:14;;;;;;;11.57;10.40;;;12.00;99.90;;;;;;5074658;28;20269;-75
2023/05/16 07:48:42;;;;;;;10.93;9.83;;;11.90;99.90;;;;;;5071113;28;20207;-76
2023/05/16 07:51:10;;;;;;;11.50;10.30;;;12.10;99.90;;;;;;5071591;28;20253;-79
2023/05/16 07:53:38;;;;;;;11.30;10.10;;;12.20;99.90;;;;;;5071509;28;20207;-77
2023/05/16 07:56:07;;;;;;;11.17;9.70;;;12.40;99.90;;;;;;5070918;28;20626;-78
2023/05/16 07:58:35;;;;;;;10.80;9.80;;;12.50;99.90;;;;;;5071784;28;20718;-78
2023/05/16 08:01:05;;;;;;;11.77;10.00;;;12.70;99.90;;;;;;5072458;28;20314;-76
2023/05/16 08:03:33;;;;;;;10.23;8.83;;;12.70;99.90;;;;;;5072232;28;20715;-75
2023/05/16 08:06:01;;;;;;;9.77;8.77;;;12.70;99.90;;;;;;5073803;28;20207;-78
2023/05/16 08:08:30;;;;;;;10.57;9.40;;;12.70;99.90;;;;;;5075023;28;20214;-77
2023/05/16 08:10:58;;;;;;;11.20;10.00;;;12.70;99.90;;;;;;5074278;28;20219;-76
2023/05/16 08:13:26;;;;;;;11.47;9.50;;;12.70;99.90;;;;;;5074163;28;20619;-76
2023/05/16 08:15:54;;;;;;;10.90;8.97;;;12.80;99.90;;;;;;5073924;28;20760;-77
2023/05/16 08:18:24;;;;;;;9.80;8.97;;;12.80;99.90;;;;;;5073399;28;20207;-77
2023/05/16 08:20:52;;;;;;;10.87;9.40;;;12.60;99.90;;;;;;5072938;28;20231;-75
2023/05/16 08:23:20;;;;;;;9.93;9.03;;;12.50;99.90;;;;;;5073064;28;20629;-76
2023/05/16 08:25:49;;;;;;;11.37;9.60;;;12.80;99.90;;;;;;5073096;28;20241;-75
2023/05/16 08:28:17;;;;;;;11.00;9.90;;;12.60;99.90;;;;;;5072167;28;20298;-77
2023/05/16 08:30:45;;;;;;;10.60;9.50;;;12.60;99.90;;;;;;5073409;28;20219;-75
2023/05/16 08:33:15;;;;;;;10.90;9.80;;;12.60;99.90;;;;;;5075269;28;20213;-79
2023/05/16 08:35:45;;;;;;;10.73;9.63;;;12.80;99.90;;;;;;5099822;28;20203;-76
2023/05/16 08:38:13;;;;;;;10.30;9.20;;;13.10;99.90;;;;;;5080234;28;20243;-77
2023/05/16 08:40:43;;;;;;;10.30;9.20;;;13.20;99.90;;;;;;5072891;28;20669;-74
2023/05/16 08:43:11;;;;;;;9.87;8.87;;;13.30;99.90;;;;;;5072627;28;20231;-78
2023/05/16 08:45:40;;;;;;;11.93;9.93;;;13.30;99.90;;;;;;5083844;28;20298;-77
2023/05/16 08:48:10;;;;;;;9.93;8.87;;;13.40;99.90;;;;;;5093706;28;20211;-79
2023/05/16 08:50:41;;;;;;;11.13;9.43;;;13.60;99.90;;;;;;5093478;28;20238;-75
2023/05/16 08:53:14;;;;;;;10.80;8.83;;;13.70;99.90;;;;;;5092023;28;20214;-76
2023/05/16 08:55:44;;;;;;;10.50;9.43;;;14.00;99.90;;;;;;5093745;28;20238;-75
2023/05/16 08:58:13;;;;;;;10.00;9.00;;;14.30;99.90;;;;;;5093684;28;20210;-78
2023/05/16 09:00:42;;;;;;;10.67;8.90;;;14.40;99.90;;;;;;5093312;28;20317;-76
2023/05/16 09:03:10;;;;;;;10.90;8.60;;;14.50;99.90;;;;;;5081637;28;20223;-76
2023/05/16 09:05:38;;;;;;;9.53;8.50;;;14.60;99.90;;;;;;5073130;28;20207;-79
2023/05/16 09:08:07;;;;;;;9.80;8.80;;;14.90;99.90;;;;;;5072954;28;20288;-74
2023/05/16 09:10:36;;;;;;;9.73;8.73;;;15.00;99.90;;;;;;5077545;28;20207;-75
2023/05/16 09:13:06;;;;;;;10.43;9.53;;;14.90;99.90;;;;;;5094012;28;20203;-77
2023/05/16 09:15:34;;;;;;;11.07;9.40;;;14.40;99.90;;;;;;5093014;28;20249;-77
2023/05/16 09:18:03;;;;;;;26.03;23.23;;;14.60;99.90;;;;;;5091842;28;20218;-78
2023/05/16 09:20:31;;;;;;;11.60;10.43;;;14.80;99.90;;;;;;5088822;28;20668;-76
2023/05/16 09:23:00;;;;;;;9.90;8.90;;;15.00;99.90;;;;;;5092629;28;20645;-79
2023/05/16 09:25:31;;;;;;;10.97;8.30;;;15.80;99.90;;;;;;5092749;28;20211;-77
2023/05/16 09:28:02;;;;;;;9.60;8.70;;;16.50;99.90;;;;;;5072914;28;20219;-76
2023/05/16 09:30:32;;;;;;;9.63;8.03;;;16.50;99.90;;;;;;5072739;28;20306;-78
2023/05/16 09:33:01;;;;;;;8.97;8.07;;;16.40;99.90;;;;;;5080645;28;20645;-73
2023/05/16 09:35:31;;;;;;;9.30;8.40;;;16.80;99.90;;;;;;5089569;28;20215;-75
2023/05/16 09:38:02;;;;;;;9.20;8.13;;;16.50;99.90;;;;;;5072345;28;20200;-77
2023/05/16 09:40:31;;;;;;;10.13;9.10;;;16.30;99.90;;;;;;5072303;28;20208;-74
2023/05/16 09:43:05;;;;;;;9.13;8.33;;;16.00;99.90;;;;;;5071732;28;20572;-77
2023/05/16 09:45:34;;;;;;;10.53;8.93;;;15.80;99.90;;;;;;5077808;28;20256;-79
2023/05/16 09:48:05;;;;;;;10.33;9.40;;;15.70;99.90;;;;;;5092059;28;20283;-78
2023/05/16 09:50:35;;;;;;;10.77;9.23;;;15.20;99.90;;;;;;5092038;28;20259;-77
2023/05/16 09:53:04;;;;;;;10.07;9.17;;;15.10;99.90;;;;;;5092201;28;20211;-76
2023/05/16 09:55:33;;;;;;;11.77;10.77;;;15.00;99.90;;;;;;5080228;28;20653;-78
2023/05/16 09:58:02;;;;;;;12.30;11.17;;;14.80;99.90;;;;;;5072245;28;20258;-78
2023/05/16 10:00:31;;;;;;;12.27;11.07;;;14.40;99.90;;;;;;5072308;28;20277;-80
2023/05/16 10:03:01;;;;;;;12.90;11.60;;;14.40;99.90;;;;;;5071348;28;20200;-78
2023/05/16 10:05:33;;;;;;;12.83;11.70;;;14.30;99.90;;;;;;5072204;28;20218;-78
2023/05/16 10:08:03;;;;;;;12.87;11.53;;;14.20;99.90;;;;;;5071769;28;20710;-78
2023/05/16 10:10:36;;;;;;;13.10;11.90;;;14.20;99.90;;;;;;5074869;28;20199;-77
2023/05/16 10:13:07;;;;;;;11.60;10.57;;;14.40;99.90;;;;;;5091939;28;20187;-79
2023/05/16 10:15:37;;;;;;;12.80;11.50;;;14.60;99.90;;;;;;5092042;28;20215;-77
2023/05/16 10:18:10;;;;;;;12.90;11.70;;;14.60;99.90;;;;;;5091665;28;20668;-78
2023/05/16 10:20:41;;;;;;;12.60;11.40;;;14.50;99.90;;;;;;5080193;28;20207;-77
2023/05/16 10:23:14;;;;;;;13.93;11.97;;;14.50;99.90;;;;;;5071486;28;20238;-77
2023/05/16 10:25:43;;;;;;;12.07;10.97;;;14.50;99.90;;;;;;5071547;28;20253;-80
2023/05/16 10:28:14;;;;;;;14.20;12.80;;;14.40;99.90;;;;;;5084092;28;20291;-78
2023/05/16 10:30:44;;;;;;;14.60;13.20;;;14.20;99.90;;;;;;5095217;28;20206;-79
2023/05/16 10:33:13;;;;;;;16.20;13.57;;;14.10;99.90;;;;;;5095327;28;20210;-77
2023/05/16 10:35:42;;;;;;;15.10;13.60;;;14.30;99.90;;;;;;5085611;28;20204;-78
2023/05/16 10:38:12;;;;;;;13.17;11.97;;;14.30;99.90;;;;;;5075429;28;20610;-78
2023/05/16 10:40:41;;;;;;;12.90;11.53;;;14.60;99.90;;;;;;5075262;28;20207;-75
2023/05/16 10:43:09;;;;;;;15.23;12.17;;;14.70;99.90;;;;;;5074847;28;20211;-77
2023/05/16 10:45:41;;;;;;;13.60;12.20;;;14.80;99.90;;;;;;5089394;28;20296;-79
2023/05/16 10:48:14;;;;;;;14.60;13.10;;;14.90;99.90;;;;;;5074851;28;20225;-77
2023/05/16 10:50:43;;;;;;;14.73;13.13;;;14.70;99.90;;;;;;5075125;28;20207;-79
2023/05/16 10:53:16;;;;;;;13.70;12.50;;;14.60;99.90;;;;;;5074815;28;20264;-75
2023/05/16 10:56:06;;;;;;;14.17;12.77;;;14.50;99.90;;;;;;5074799;28;20203;-77
2023/05/16 10:58:44;;;;;;;13.67;12.37;;;14.40;99.90;;;;;;5075243;28;20238;-75
2023/05/16 11:01:22;;;;;;;14.87;13.27;;;14.40;99.90;;;;;;5074851;28;20229;-75
2023/05/16 11:04:08;;;;;;;14.23;12.83;;;14.40;99.90;;;;;;5084192;28;20294;-77
2023/05/16 11:06:46;;;;;;;14.37;13.07;;;14.30;99.90;;;;;;5095270;28;20214;-74
2023/05/16 11:09:27;;;;;;;15.90;14.40;;;14.10;99.90;;;;;;5095104;28;20191;-78
2023/05/16 11:12:02;;;;;;;15.70;14.10;;;13.90;99.90;;;;;;5094775;28;20673;-76
2023/05/16 11:14:38;;;;;;;17.43;15.80;;;13.70;99.90;;;;;;5083680;28;20213;-82
2023/05/16 11:17:11;;;;;;;17.23;15.23;;;13.60;99.90;;;;;;5076476;28;20287;-82
2023/05/16 11:19:42;;;;;;;16.77;15.17;;;13.40;99.90;;;;;;5075020;28;20219;-79
2023/05/16 11:22:25;;;;;;;19.87;16.17;;;13.20;99.90;;;;;;5075076;28;20258;-79
2023/05/16 11:24:59;;;;;;;20.63;16.20;;;13.00;99.90;;;;;;5083386;28;20258;-79
2023/05/16 11:27:29;;;;;;;24.73;15.83;;;12.80;99.90;;;;;;5081691;28;20293;-74
2023/05/16 11:30:00;;;;;;;23.00;14.70;;;12.50;99.90;;;;;;5081007;28;20202;-73
2023/05/16 11:32:35;;;;;;;23.07;15.40;;;11.90;99.90;;;;;;5083384;28;20207;-76
2023/05/16 11:35:04;;;;;;;38.47;15.43;;;11.60;99.90;;;;;;5074662;28;20192;-77
2023/05/16 11:37:32;;;;;;;18.17;14.73;;;11.40;99.90;;;;;;5074158;28;20665;-77
2023/05/16 11:40:01;;;;;;;28.13;15.47;;;11.30;99.90;;;;;;5074225;28;20264;-76
2023/05/16 11:42:32;;;;;;;16.97;14.47;;;11.30;99.90;;;;;;5073995;28;20212;-79
2023/05/16 11:45:05;;;;;;;18.43;15.30;;;11.30;99.90;;;;;;5076017;28;20266;-76
2023/05/16 11:47:37;;;;;;;19.53;17.53;;;11.30;99.90;;;;;;5084810;28;20283;-79
2023/05/16 11:50:08;;;;;;;22.40;18.97;;;11.40;99.90;;;;;;5076642;28;20222;-79
2023/05/16 11:52:37;;;;;;;19.77;16.87;;;11.70;99.90;;;;;;5087250;28;20211;-79
2023/05/16 11:55:06;;;;;;;19.00;17.13;;;11.80;99.90;;;;;;5074708;28;20204;-79
2023/05/16 11:57:35;;;;;;;16.40;14.73;;;11.90;99.90;;;;;;5078710;28;20211;-78
2023/05/16 12:00:06;;;;;;;17.67;15.90;;;11.90;99.90;;;;;;5073660;28;20231;-78
2023/05/16 12:02:36;;;;;;;17.17;15.37;;;12.00;99.90;;;;;;5074009;28;20195;-76
2023/05/16 12:05:08;;;;;;;19.20;17.10;;;12.20;99.90;;;;;;5073592;28;20232;-77
2023/05/16 12:07:37;;;;;;;17.33;15.80;;;12.30;99.90;;;;;;5073422;28;20261;-77
2023/05/16 12:10:07;;;;;;;17.43;15.67;;;12.40;99.90;;;;;;5085235;28;20206;-76
2023/05/16 12:12:35;;;;;;;17.93;16.00;;;12.30;99.90;;;;;;5092543;28;20306;-74
2023/05/16 12:15:05;;;;;;;18.20;16.50;;;12.20;99.90;;;;;;5093227;28;20242;-74
2023/05/16 12:17:33;;;;;;;17.23;15.53;;;12.20;99.90;;;;;;5075195;28;20216;-79
2023/05/16 12:20:05;;;;;;;17.80;16.10;;;12.50;99.90;;;;;;5073010;28;20211;-76
2023/05/16 12:22:33;;;;;;;17.23;15.43;;;12.60;99.90;;;;;;5072008;28;20702;-76
2023/05/16 12:25:21;;;;;;;16.87;15.17;;;12.80;99.90;;;;;;5072404;28;20318;-75
2023/05/16 12:27:49;;;;;;;16.90;15.40;;;12.90;99.90;;;;;;5073172;28;20208;-74
2023/05/16 12:30:17;;;;;;;16.80;15.20;;;12.90;99.90;;;;;;5092857;28;20730;-75
2023/05/16 12:32:46;;;;;;;18.40;16.67;;;12.90;99.90;;;;;;5092752;28;20233;-74
2023/05/16 12:35:18;;;;;;;18.50;16.60;;;12.80;99.90;;;;;;5076405;28;20207;-75
2023/05/16 12:37:46;;;;;;;19.20;17.37;;;12.90;99.90;;;;;;5072558;28;20196;-75
2023/05/16 12:40:15;;;;;;;17.90;16.20;;;13.10;99.90;;;;;;5072722;28;20635;-74
2023/05/16 12:42:44;;;;;;;17.43;15.83;;;13.40;99.90;;;;;;5072236;28;20603;-75
2023/05/16 12:45:16;;;;;;;15.93;14.43;;;13.70;99.90;;;;;;5072522;28;20227;-76
2023/05/16 12:47:45;;;;;;;17.03;15.33;;;14.00;99.90;;;;;;5072593;28;20208;-76